Time;durP1;ratioP1;P1;durP2;ratioP2;P2;SDS_P1;SDS_P2;PMS_P1;PMS_P2;Temp;Humidity;BMP_temperature;BMP_pressure;BME280_temperature;BME280_humidity;BME280_pressure;Samples;Min_cycle;Max_cycle;Signal;HPM_P1;HPM_P2
2022/10/19 00:01:48;;;;;;;19.15;5.30;;;;;;;7.42;100.00;103066.06;5046234;28;20029;-73
2022/10/19 00:04:13;;;;;;;12.20;5.07;;;;;;;7.41;100.00;103067.03;5047487;28;20043;-73
2022/10/19 00:06:39;;;;;;;9.05;4.57;;;;;;;7.38;100.00;103065.41;5044982;28;20044;-73
2022/10/19 00:09:14;;;;;;;16.25;4.80;;;;;;;7.39;100.00;103059.00;5045836;28;20465;-73
2022/10/19 00:11:43;;;;;;;9.63;5.13;;;;;;;7.37;100.00;103051.91;5048013;28;20024;-73
2022/10/19 00:14:13;;;;;;;17.60;5.03;;;;;;;7.37;100.00;103063.66;5036646;28;20046;-72
2022/10/19 00:16:39;;;;;;;12.73;4.95;;;;;;;7.34;100.00;103060.34;5040872;28;20128;-73
2022/10/19 00:19:07;;;;;;;9.30;4.90;;;;;;;7.33;100.00;103055.88;5045787;28;20296;-72
2022/10/19 00:21:33;;;;;;;8.85;5.20;;;;;;;7.34;100.00;103052.16;5051825;28;20021;-72
2022/10/19 00:23:59;;;;;;;9.82;5.10;;;;;;;7.29;100.00;103038.91;5050391;28;20055;-72
2022/10/19 00:26:24;;;;;;;11.40;4.88;;;;;;;7.25;100.00;103042.84;5048172;28;20063;-72
2022/10/19 00:28:53;;;;;;;12.80;4.90;;;;;;;7.24;100.00;103042.97;5048697;28;20460;-74
2022/10/19 00:31:19;;;;;;;21.83;5.30;;;;;;;7.21;100.00;103040.50;5051446;28;20500;-72
2022/10/19 00:33:45;;;;;;;17.17;5.63;;;;;;;7.30;100.00;103034.31;5032445;28;20039;-72
2022/10/19 00:36:14;;;;;;;16.10;6.32;;;;;;;7.28;100.00;103039.91;5037227;28;20082;-72
2022/10/19 00:38:40;;;;;;;16.63;5.03;;;;;;;7.23;100.00;103043.97;5048559;28;20033;-72
2022/10/19 00:41:06;;;;;;;19.83;5.72;;;;;;;7.37;100.00;103044.59;5033690;28;20025;-73
2022/10/19 00:43:31;;;;;;;32.40;6.40;;;;;;;7.44;100.00;103047.69;5050587;28;20041;-73
2022/10/19 00:45:56;;;;;;;19.92;6.07;;;;;;;7.42;100.00;103039.63;5050128;28;20435;-73
2022/10/19 00:48:26;;;;;;;13.32;5.82;;;;;;;7.38;100.00;103049.03;5030460;28;20033;-73
2022/10/19 00:50:57;;;;;;;13.40;5.07;;;;;;;7.32;100.00;103040.50;5050790;28;20119;-72
2022/10/19 00:53:26;;;;;;;11.23;5.38;;;;;;;7.28;100.00;103058.97;5032759;28;20396;-72
2022/10/19 00:55:52;;;;;;;8.15;5.00;;;;;;;7.27;100.00;103050.91;5029226;28;20032;-72
2022/10/19 00:58:17;;;;;;;17.63;5.25;;;;;;;7.26;100.00;103046.47;5032537;28;20128;-72
2022/10/19 01:00:42;;;;;;;17.35;5.93;;;;;;;7.30;100.00;103046.09;5033607;28;20119;-72
2022/10/19 01:03:11;;;;;;;12.30;5.30;;;;;;;7.21;100.00;103046.81;5033684;28;20110;-72
2022/10/19 01:05:37;;;;;;;16.02;5.53;;;;;;;7.23;100.00;103046.69;5049540;28;20468;-72
2022/10/19 01:08:03;;;;;;;12.53;5.53;;;;;;;7.21;100.00;103046.81;5032092;28;20095;-72
2022/10/19 01:11:02;;;;;;;15.70;5.38;;;;;;;7.27;100.00;103046.31;5049484;28;20041;-73
2022/10/19 01:13:36;;;;;;;15.90;6.28;;;;;;;7.36;100.00;103050.19;5000800;28;20037;-73
2022/10/19 01:16:18;;;;;;;13.73;6.07;;;;;;;7.36;100.00;103042.88;5052002;28;20032;-73
2022/10/19 01:18:51;;;;;;;13.63;5.82;;;;;;;7.36;100.00;103039.28;5043305;28;20044;-73
2022/10/19 01:21:22;;;;;;;21.08;6.10;;;;;;;7.32;100.00;103048.69;5033509;28;20053;-73
2022/10/19 01:24:12;;;;;;;12.05;6.28;;;;;;;7.24;100.00;103045.69;5048099;28;20096;-73
2022/10/19 01:27:01;;;;;;;17.13;5.95;;;;;;;7.24;100.00;103046.56;5045793;28;20268;-73
2022/10/19 01:29:54;;;;;;;23.60;6.10;;;;;;;7.16;100.00;103037.28;5049046;28;20495;-73
2022/10/19 01:32:38;;;;;;;19.17;6.70;;;;;;;7.10;100.00;103032.31;5030658;28;20207;-73
2022/10/19 01:35:09;;;;;;;9.35;6.40;;;;;;;7.13;100.00;103034.78;5033597;28;20116;-72
2022/10/19 01:37:47;;;;;;;17.73;7.38;;;;;;;7.21;100.00;103041.34;5313597;22;20115;-78
2022/10/19 01:40:23;;;;;;;;;;;;;;;7.38;100.00;103029.13;5107782;22;20185;-76
2022/10/19 01:43:21;;;;;;;13.77;6.30;;;;;;;7.47;100.00;103023.78;5067860;28;19916;-77
2022/10/19 01:45:51;;;;;;;21.33;6.60;;;;;;;7.63;100.00;103026.16;5054888;28;20055;-77
2022/10/19 01:48:21;;;;;;;10.23;5.85;;;;;;;7.74;100.00;103029.72;5052203;28;20040;-76
2022/10/19 01:50:59;;;;;;;12.60;5.75;;;;;;;7.68;100.00;103026.63;5052178;28;20028;-77
2022/10/19 01:53:27;;;;;;;16.90;5.82;;;;;;;7.66;100.00;103021.31;5053432;28;20514;-76
2022/10/19 01:55:55;;;;;;;10.98;5.43;;;;;;;7.64;100.00;103023.28;5067756;28;20475;-77
2022/10/19 01:58:26;;;;;;;9.27;5.05;;;;;;;7.76;100.00;103022.28;5051092;28;20083;-76
2022/10/19 02:00:55;;;;;;;12.63;5.18;;;;;;;7.76;100.00;103021.41;5068519;28;20390;-76
2022/10/19 02:03:22;;;;;;;17.77;5.60;;;;;;;7.71;100.00;103013.63;5068705;28;20043;-77
2022/10/19 02:05:50;;;;;;;15.65;4.88;;;;;;;7.89;100.00;103011.19;5051947;28;20433;-77
2022/10/19 02:08:23;;;;;;;8.60;4.78;;;;;;;7.83;100.00;103007.13;5069870;28;20056;-77
2022/10/19 02:10:50;;;;;;;16.98;4.70;;;;;;;7.76;100.00;103005.03;5067844;28;20056;-77
2022/10/19 02:13:15;;;;;;;17.13;5.20;;;;;;;7.80;100.00;103001.91;5039057;28;20036;-77
2022/10/19 02:15:45;;;;;;;18.30;4.80;;;;;;;7.82;100.00;102994.50;5058160;28;20033;-76
2022/10/19 02:18:14;;;;;;;9.60;4.45;;;;;;;7.84;100.00;102997.97;5066876;28;20036;-77
2022/10/19 02:20:39;;;;;;;9.10;3.40;;;;;;;7.85;100.00;102991.50;5050464;28;20025;-74
2022/10/19 02:23:05;;;;;;;19.73;4.80;;;;;;;7.97;100.00;102986.88;5068067;28;20434;-77
2022/10/19 02:25:31;;;;;;;17.45;4.60;;;;;;;7.95;100.00;102994.34;5067399;28;20116;-75
2022/10/19 02:27:59;;;;;;;11.00;3.88;;;;;;;7.98;100.00;102986.78;5070227;28;20391;-74
2022/10/19 02:30:25;;;;;;;12.40;3.92;;;;;;;7.97;100.00;102997.81;5064753;28;20027;-77
2022/10/19 02:32:51;;;;;;;9.63;4.20;;;;;;;7.99;100.00;102990.34;5068165;28;20394;-77
2022/10/19 02:35:17;;;;;;;28.65;4.45;;;;;;;8.00;100.00;102992.94;5052087;28;20032;-77
2022/10/19 02:37:42;;;;;;;11.48;3.85;;;;;;;7.95;100.00;102988.91;5050300;28;20028;-75
2022/10/19 02:40:09;;;;;;;9.20;3.58;;;;;;;7.82;100.00;102993.63;5068634;28;20036;-76
2022/10/19 02:42:49;;;;;;;14.85;3.67;;;;;;;7.78;100.00;102997.59;5062728;28;20032;-77
2022/10/19 02:45:47;;;;;;;7.95;4.22;;;;;;;7.74;100.00;102990.69;5070150;28;20107;-77
2022/10/19 02:48:21;;;;;;;8.65;3.40;;;;;;;7.63;100.00;103004.31;5050125;28;20040;-76
2022/10/19 02:50:46;;;;;;;6.82;3.13;;;;;;;7.51;100.00;102999.84;5068192;28;20672;-76
2022/10/19 02:53:12;;;;;;;15.75;4.00;;;;;;;7.44;100.00;102999.50;5068189;28;20032;-76
2022/10/19 02:55:38;;;;;;;9.05;3.40;;;;;;;7.39;100.00;102996.28;5066672;28;20114;-76
2022/10/19 02:58:03;;;;;;;9.65;3.45;;;;;;;7.37;100.00;102983.78;5068288;28;20107;-77
2022/10/19 03:00:29;;;;;;;9.57;3.50;;;;;;;7.29;100.00;102986.22;5068037;28;20025;-76
2022/10/19 03:02:54;;;;;;;9.98;3.40;;;;;;;7.22;100.00;102982.28;5066783;28;20025;-73
2022/10/19 03:05:19;;;;;;;11.43;3.30;;;;;;;7.13;100.00;102983.00;5050078;28;20475;-77
2022/10/19 03:07:45;;;;;;;8.60;3.30;;;;;;;7.10;100.00;102984.13;5051517;28;20077;-77
2022/10/19 03:10:11;;;;;;;4.53;3.67;;;;;;;7.05;100.00;102980.88;5064312;28;20024;-75
2022/10/19 03:12:36;;;;;;;8.93;3.05;;;;;;;6.98;100.00;102984.22;5063491;28;20029;-76
2022/10/19 03:15:01;;;;;;;11.95;3.70;;;;;;;6.92;100.00;102971.09;5068233;28;20028;-76
2022/10/19 03:17:27;;;;;;;8.50;3.60;;;;;;;6.82;100.00;102973.69;5069771;28;20415;-76
2022/10/19 03:19:52;;;;;;;9.93;3.58;;;;;;;6.84;100.00;102970.84;5068452;28;20020;-75
2022/10/19 03:22:18;;;;;;;23.13;2.92;;;;;;;6.85;100.00;102962.56;5066738;28;20074;-77
2022/10/19 03:24:43;;;;;;;6.38;3.30;;;;;;;6.86;100.00;102957.97;5048934;28;20089;-77
2022/10/19 03:27:08;;;;;;;6.03;3.42;;;;;;;6.87;100.00;102951.53;5069439;28;20116;-77
2022/10/19 03:29:33;;;;;;;7.68;3.45;;;;;;;6.89;100.00;102953.13;5050784;28;20036;-75
2022/10/19 03:32:00;;;;;;;12.88;3.38;;;;;;;6.95;100.00;102951.78;5049891;28;20071;-75
2022/10/19 03:34:25;;;;;;;8.70;3.50;;;;;;;7.00;100.00;102957.75;5067454;28;20028;-76
2022/10/19 03:36:51;;;;;;;9.88;3.65;;;;;;;6.96;100.00;102953.53;5051720;28;20051;-76
2022/10/19 03:39:16;;;;;;;13.13;4.10;;;;;;;6.95;100.00;102958.09;5067436;28;20358;-77
2022/10/19 03:41:42;;;;;;;12.18;4.43;;;;;;;7.00;100.00;102952.28;5051249;28;20051;-77
2022/10/19 03:44:09;;;;;;;17.27;4.18;;;;;;;7.15;100.00;102953.78;5067134;28;20034;-77
2022/10/19 03:46:35;;;;;;;9.63;3.53;;;;;;;7.22;100.00;102957.75;5069838;28;20445;-77
2022/10/19 03:49:01;;;;;;;9.52;3.80;;;;;;;7.31;100.00;102957.00;5068764;28;20037;-77
2022/10/19 03:51:28;;;;;;;10.43;4.10;;;;;;;7.36;100.00;102947.44;5073617;28;20527;-76
2022/10/19 03:53:54;;;;;;;;;;;;;;;7.45;100.00;102956.72;5053376;28;20077;-77
2022/10/19 03:56:23;;;;;;;13.60;4.47;;;;;;;7.39;100.00;102946.34;5067237;28;19917;-77
2022/10/19 03:58:49;;;;;;;7.20;3.33;;;;;;;7.34;100.00;102960.34;5070455;28;20045;-75
2022/10/19 04:01:19;;;;;;;8.90;3.20;;;;;;;7.25;100.00;102966.53;5071112;28;20047;-77
2022/10/19 04:03:45;;;;;;;10.63;4.00;;;;;;;7.21;100.00;102966.91;5069597;28;20028;-78
2022/10/19 04:06:13;;;;;;;5.47;3.33;;;;;;;7.26;100.00;102967.41;5069872;28;20536;-74
2022/10/19 04:08:39;;;;;;;8.57;3.72;;;;;;;7.22;100.00;102960.47;5065352;28;20040;-77
2022/10/19 04:11:13;;;;;;;10.45;3.35;;;;;;;7.22;100.00;102960.47;5054551;28;20025;-76
2022/10/19 04:13:39;;;;;;;9.35;3.13;;;;;;;7.25;100.00;102957.47;5068943;28;20082;-77
2022/10/19 04:16:05;;;;;;;15.02;3.25;;;;;;;7.24;100.00;102956.63;5069090;28;20032;-77
2022/10/19 04:18:30;;;;;;;15.00;5.40;;;;;;;7.27;100.00;102952.78;5070594;28;20120;-76
2022/10/19 04:21:02;;;;;;;12.30;4.38;;;;;;;7.23;100.00;102948.56;5036767;28;20583;-76
2022/10/19 04:23:30;;;;;;;7.68;3.85;;;;;;;7.32;100.00;102940.50;5060760;28;20379;-76
2022/10/19 04:25:59;;;;;;;15.40;3.55;;;;;;;7.34;100.00;102940.38;5068957;28;20479;-77
2022/10/19 04:28:25;;;;;;;7.95;3.05;;;;;;;7.38;100.00;102944.59;5052749;28;20435;-76
2022/10/19 04:30:50;;;;;;;7.97;3.00;;;;;;;7.36;100.00;102952.06;5071306;28;20063;-75
2022/10/19 04:33:15;;;;;;;7.75;3.42;;;;;;;7.41;100.00;102952.50;5059153;28;20113;-77
2022/10/19 04:35:41;;;;;;;8.03;3.10;;;;;;;7.43;100.00;102953.28;5054543;28;20056;-77
2022/10/19 04:38:06;;;;;;;12.68;3.40;;;;;;;7.43;100.00;102954.13;5050109;28;20036;-77
2022/10/19 04:40:35;;;;;;;7.22;2.83;;;;;;;7.42;100.00;102957.84;5068811;28;20051;-76
2022/10/19 04:43:01;;;;;;;10.77;3.25;;;;;;;7.43;100.00;102961.44;5066888;28;20471;-77
2022/10/19 04:45:27;;;;;;;9.60;3.17;;;;;;;7.39;100.00;102968.16;5066784;28;20041;-76
2022/10/19 04:47:55;;;;;;;13.55;4.05;;;;;;;7.40;100.00;102964.41;5070024;28;20388;-77
2022/10/19 04:50:21;;;;;;;16.30;3.50;;;;;;;7.43;100.00;102970.47;5072049;28;20027;-78
2022/10/19 04:52:46;;;;;;;10.02;3.50;;;;;;;7.43;100.00;102962.31;5067957;28;20032;-76
2022/10/19 04:55:12;;;;;;;7.20;3.00;;;;;;;7.40;100.00;102956.25;5068993;28;20021;-77
2022/10/19 04:57:37;;;;;;;14.50;3.83;;;;;;;7.37;100.00;102956.50;5070203;28;20085;-77
2022/10/19 05:00:03;;;;;;;10.20;3.30;;;;;;;7.36;100.00;102963.81;5069621;28;20345;-77
2022/10/19 05:02:28;;;;;;;13.67;3.53;;;;;;;7.34;100.00;102959.47;5068863;28;20433;-77
2022/10/19 05:04:53;;;;;;;11.95;4.05;;;;;;;7.33;100.00;102966.81;5052258;28;20265;-76
2022/10/19 05:07:19;;;;;;;16.70;3.80;;;;;;;7.27;100.00;102961.81;5062689;28;20057;-77
2022/10/19 05:09:44;;;;;;;10.90;3.13;;;;;;;7.25;100.00;102950.19;5070387;28;20028;-78
2022/10/19 05:12:09;;;;;;;10.07;3.65;;;;;;;7.18;100.00;102948.06;5040334;28;20056;-77
2022/10/19 05:14:35;;;;;;;12.25;3.97;;;;;;;7.03;100.00;102938.41;5063830;28;20101;-76
2022/10/19 05:17:00;;;;;;;7.40;2.90;;;;;;;7.01;100.00;102945.84;5067748;28;20028;-77
2022/10/19 05:19:25;;;;;;;11.80;3.50;;;;;;;6.95;100.00;102941.75;5070283;28;20024;-75
2022/10/19 05:21:51;;;;;;;6.47;3.05;;;;;;;6.95;100.00;102947.19;5067795;28;20028;-76
2022/10/19 05:24:16;;;;;;;4.72;3.33;;;;;;;6.93;100.00;102941.00;5071687;28;20085;-77
2022/10/19 05:26:41;;;;;;;5.00;3.08;;;;;;;6.81;100.00;102939.28;5068729;28;20489;-77
2022/10/19 05:29:10;;;;;;;10.38;3.72;;;;;;;6.77;100.00;102934.16;5048899;28;20025;-77
2022/10/19 05:31:36;;;;;;;7.13;2.92;;;;;;;6.71;100.00;102940.09;5064384;28;20400;-74
2022/10/19 05:34:02;;;;;;;5.35;3.25;;;;;;;6.70;100.00;102946.56;5070445;28;20021;-76
2022/10/19 05:36:36;;;;;;;9.98;3.40;;;;;;;6.68;100.00;102938.50;5069223;28;20024;-77
2022/10/19 05:39:03;;;;;;;9.82;3.63;;;;;;;6.67;100.00;102942.22;5061284;28;20036;-77
2022/10/19 05:41:29;;;;;;;6.80;3.33;;;;;;;6.63;100.00;102943.44;5052657;28;20024;-76
2022/10/19 05:44:00;;;;;;;10.05;3.95;;;;;;;6.55;100.00;102931.41;5049337;28;20027;-77
2022/10/19 05:46:27;;;;;;;5.38;3.60;;;;;;;6.53;100.00;102933.41;5053206;28;20063;-76
2022/10/19 05:48:54;;;;;;;6.97;3.05;;;;;;;6.55;100.00;102928.69;5050731;28;20025;-77
2022/10/19 05:51:20;;;;;;;11.02;3.50;;;;;;;6.54;100.00;102927.84;5071135;28;20047;-77
2022/10/19 05:53:46;;;;;;;11.35;3.95;;;;;;;6.49;100.00;102921.00;5047959;28;20032;-76
2022/10/19 05:56:15;;;;;;;8.15;3.35;;;;;;;6.44;100.00;102917.78;5066518;28;20028;-76
2022/10/19 05:58:40;;;;;;;9.18;3.03;;;;;;;6.36;100.00;102921.09;5064826;28;20033;-77
2022/10/19 06:01:07;;;;;;;23.42;3.65;;;;;;;6.32;100.00;102924.19;5068219;28;20063;-76
2022/10/19 06:03:32;;;;;;;9.18;3.70;;;;;;;6.34;100.00;102911.31;5069321;28;20024;-76
2022/10/19 06:05:57;;;;;;;16.67;3.65;;;;;;;6.28;100.00;102909.97;5066614;28;20545;-76
2022/10/19 06:08:23;;;;;;;7.80;3.55;;;;;;;6.25;100.00;102912.06;5043961;28;20390;-76
2022/10/19 06:10:49;;;;;;;11.13;3.47;;;;;;;6.25;100.00;102902.03;5066918;28;20032;-77
2022/10/19 06:13:16;;;;;;;9.95;4.20;;;;;;;6.25;100.00;102907.47;5061883;28;20024;-75
2022/10/19 06:15:41;;;;;;;9.90;3.92;;;;;;;6.26;100.00;102917.34;5060038;28;20051;-77
2022/10/19 06:18:09;;;;;;;10.35;3.40;;;;;;;6.25;100.00;102917.50;5063367;28;20044;-75
2022/10/19 06:20:39;;;;;;;15.13;3.63;;;;;;;6.21;100.00;102906.00;5045825;28;20483;-76
2022/10/19 06:23:05;;;;;;;11.38;4.43;;;;;;;6.39;100.00;102911.81;5069138;28;20087;-78
2022/10/19 06:25:31;;;;;;;10.32;3.92;;;;;;;6.35;100.00;102913.94;5052091;28;20040;-75
2022/10/19 06:27:57;;;;;;;9.07;3.78;;;;;;;6.37;100.00;102911.97;5049660;28;20128;-76
2022/10/19 06:30:23;;;;;;;14.40;3.90;;;;;;;6.50;100.00;102903.69;5068363;28;20368;-77
2022/10/19 06:32:48;;;;;;;17.70;4.00;;;;;;;6.50;100.00;102911.84;5046437;28;20031;-77
2022/10/19 06:35:14;;;;;;;14.88;4.50;;;;;;;6.50;100.00;102911.84;5069619;28;20424;-75
2022/10/19 06:37:40;;;;;;;9.27;5.53;;;;;;;6.69;100.00;102914.88;5061882;28;20556;-76
2022/10/19 06:40:06;;;;;;;14.52;4.93;;;;;;;6.74;100.00;102920.81;5048434;28;20024;-76
2022/10/19 06:42:31;;;;;;;13.52;5.05;;;;;;;6.77;100.00;102923.28;5066233;28;20581;-76
2022/10/19 06:44:56;;;;;;;10.77;3.65;;;;;;;6.81;100.00;102933.81;5068610;28;20083;-76
2022/10/19 06:47:22;;;;;;;13.18;4.70;;;;;;;6.82;100.00;102929.22;5067990;28;20497;-76
2022/10/19 06:49:47;;;;;;;10.57;4.53;;;;;;;6.88;100.00;102924.16;5067880;28;20060;-77
2022/10/19 06:52:12;;;;;;;12.68;4.50;;;;;;;6.81;100.00;102924.78;5062791;28;20336;-75
2022/10/19 06:54:38;;;;;;;13.02;4.72;;;;;;;6.90;100.00;102926.78;5045111;28;20051;-76
2022/10/19 06:57:03;;;;;;;15.63;4.85;;;;;;;7.01;100.00;102918.59;5050783;28;20066;-77
2022/10/19 06:59:28;;;;;;;14.95;4.97;;;;;;;7.12;100.00;102918.59;5062027;28;20033;-76
2022/10/19 07:01:54;;;;;;;11.35;4.53;;;;;;;7.17;100.00;102921.81;5044236;28;20031;-76
2022/10/19 07:04:19;;;;;;;13.10;4.97;;;;;;;7.27;100.00;102920.94;5058303;28;20036;-76
2022/10/19 07:06:44;;;;;;;15.13;4.72;;;;;;;7.32;100.00;102926.88;5064644;28;20029;-77
2022/10/19 07:09:09;;;;;;;17.02;5.60;;;;;;;7.37;100.00;102923.78;5052036;28;20127;-76
2022/10/19 07:11:35;;;;;;;9.95;3.95;;;;;;;7.47;100.00;102924.78;5066677;28;20032;-75
2022/10/19 07:14:00;;;;;;;11.48;4.85;;;;;;;7.60;100.00;102934.53;5068623;28;20056;-76
2022/10/19 07:16:25;;;;;;;8.10;4.45;;;;;;;7.75;100.00;102938.69;5045511;28;20581;-75
2022/10/19 07:18:52;;;;;;;23.02;4.65;;;;;;;7.90;100.00;102920.19;5048340;28;20028;-76
2022/10/19 07:21:19;;;;;;;10.25;4.20;;;;;;;7.88;100.00;102928.50;5049055;28;20136;-76
2022/10/19 07:23:46;;;;;;;10.00;4.38;;;;;;;8.01;100.00;102925.59;5058289;28;20071;-77
2022/10/19 07:26:16;;;;;;;14.82;5.13;;;;;;;8.11;100.00;102921.09;5060216;28;20465;-75
2022/10/19 07:28:44;;;;;;;15.18;5.63;;;;;;;8.11;100.00;102915.66;5064653;28;20131;-76
2022/10/19 07:31:12;;;;;;;10.90;4.35;;;;;;;8.18;100.00;102912.22;5037773;28;20546;-76
2022/10/19 07:33:38;;;;;;;9.20;4.72;;;;;;;8.24;100.00;102914.50;5055620;28;20020;-76
2022/10/19 07:36:06;;;;;;;10.63;5.38;;;;;;;8.40;100.00;102920.38;5061197;28;20043;-76
2022/10/19 07:38:32;;;;;;;24.15;4.88;;;;;;;8.55;100.00;102909.97;5067594;28;20032;-76
2022/10/19 07:41:11;;;;;;;17.08;5.28;;;;;;;8.62;100.00;102913.88;5065039;28;20028;-76
2022/10/19 07:43:38;;;;;;;18.65;4.97;;;;;;;8.75;100.00;102900.91;5065960;28;20062;-77
2022/10/19 07:46:09;;;;;;;16.88;4.50;;;;;;;8.70;100.00;102901.28;5048471;28;20056;-76
2022/10/19 07:48:35;;;;;;;10.18;5.10;;;;;;;8.84;100.00;102900.06;5065874;28;20033;-75
2022/10/19 07:51:02;;;;;;;10.23;4.43;;;;;;;8.87;100.00;102902.53;5064991;28;20082;-76
2022/10/19 07:53:27;;;;;;;;;;;;;;;8.90;100.00;102899.53;5040281;28;20082;-77
2022/10/19 07:55:53;;;;;;;8.52;4.32;;;;;;;8.98;100.00;102894.25;5066360;28;19916;-75
2022/10/19 07:58:18;;;;;;;12.40;4.55;;;;;;;8.99;100.00;102895.97;5068459;28;20036;-71
2022/10/19 08:00:44;;;;;;;11.95;4.65;;;;;;;9.06;100.00;102900.75;5061609;28;20025;-71
2022/10/19 08:03:09;;;;;;;11.43;4.30;;;;;;;9.14;100.00;102883.66;5050076;28;20086;-72
2022/10/19 08:05:35;;;;;;;14.95;5.13;;;;;;;9.20;100.00;102884.00;5067474;28;20017;-72
2022/10/19 08:08:00;;;;;;;17.65;4.65;;;;;;;9.29;100.00;102890.50;5067890;28;20556;-71
2022/10/19 08:10:26;;;;;;;15.13;4.43;;;;;;;9.41;100.00;102886.63;5063739;28;20117;-72
2022/10/19 08:12:51;;;;;;;11.55;4.45;;;;;;;9.46;100.00;102878.88;5046351;28;20056;-71
2022/10/19 08:15:17;;;;;;;12.80;4.97;;;;;;;9.57;100.00;102871.44;5045375;28;20035;-72
2022/10/19 08:17:42;;;;;;;10.15;4.90;;;;;;;9.67;99.91;102860.50;5062654;28;20635;-70
2022/10/19 08:20:08;;;;;;;11.38;4.05;;;;;;;9.78;99.02;102852.97;5044538;28;20078;-70
2022/10/19 08:22:33;;;;;;;17.70;4.65;;;;;;;9.80;99.05;102847.38;5063071;28;20055;-71
2022/10/19 08:24:59;;;;;;;19.02;3.70;;;;;;;9.92;98.04;102854.47;5065312;28;20033;-70
2022/10/19 08:27:24;;;;;;;11.45;4.00;;;;;;;9.92;98.82;102851.72;5048857;28;20078;-71
2022/10/19 08:29:50;;;;;;;15.30;4.50;;;;;;;10.03;97.88;102849.69;5049716;28;20112;-72
2022/10/19 08:32:17;;;;;;;12.73;4.57;;;;;;;10.04;97.98;102845.97;5067506;28;20044;-70
2022/10/19 08:34:42;;;;;;;14.15;4.20;;;;;;;10.07;98.00;102862.13;5065804;28;20032;-70
2022/10/19 08:37:08;;;;;;;9.37;3.83;;;;;;;10.11;97.60;102852.59;5072354;28;20036;-70
2022/10/19 08:39:33;;;;;;;12.43;4.07;;;;;;;10.19;96.56;102863.69;5051308;28;20479;-71
2022/10/19 08:42:19;;;;;;;12.10;3.83;;;;;;;10.24;96.92;102863.28;5070147;28;20029;-70
2022/10/19 08:45:18;;;;;;;12.02;4.38;;;;;;;10.35;97.08;102858.47;5069963;28;20029;-70
2022/10/19 08:47:43;;;;;;;;;;;;;;;10.39;96.51;102853.56;5063569;28;20056;-71
2022/10/19 08:50:24;;;;;;;12.73;4.65;;;;;;;10.49;97.01;102866.25;5070165;28;19960;-70
2022/10/19 08:53:01;;;;;;;6.80;3.30;;;;;;;10.52;95.05;102854.97;5067158;28;20686;-70
2022/10/19 08:55:52;;;;;;;12.30;3.87;;;;;;;10.64;95.28;102848.31;5068429;28;20047;-70
2022/10/19 08:58:39;;;;;;;13.88;4.20;;;;;;;10.89;93.91;102855.03;5069630;28;20124;-70
2022/10/19 09:01:12;;;;;;;10.52;4.25;;;;;;;10.93;94.20;102854.56;5068474;28;20103;-70
2022/10/19 09:03:47;;;;;;;9.13;3.30;;;;;;;11.08;94.52;102860.41;5068600;28;20098;-70
2022/10/19 09:06:25;;;;;;;8.95;3.35;;;;;;;11.31;92.29;102864.50;5047550;28;20039;-70
2022/10/19 09:08:51;;;;;;;;;;;;;;;11.36;93.02;102863.00;5071672;28;20033;-70
2022/10/19 09:11:22;;;;;;;10.32;3.03;;;;;;;11.45;90.91;102866.69;5064774;28;19920;-70
2022/10/19 09:13:51;;;;;;;15.43;4.00;;;;;;;11.55;90.45;102878.50;5070562;28;20021;-70
2022/10/19 09:16:18;;;;;;;8.05;3.20;;;;;;;11.59;91.19;102877.22;5069707;28;20517;-71
2022/10/19 09:18:45;;;;;;;11.02;3.22;;;;;;;11.65;89.59;102876.59;5070726;28;20036;-70
2022/10/19 09:21:20;;;;;;;11.88;3.58;;;;;;;11.79;89.81;102876.06;5068589;28;20033;-71
2022/10/19 09:24:05;;;;;;;11.82;3.72;;;;;;;11.84;89.50;102876.47;5068964;28;20458;-70
2022/10/19 09:26:36;;;;;;;8.20;2.90;;;;;;;11.80;88.67;102870.38;5067299;28;20455;-72
2022/10/19 09:29:23;;;;;;;8.45;3.03;;;;;;;11.85;88.96;102864.44;5070446;28;20036;-71
2022/10/19 09:31:53;;;;;;;8.52;3.80;;;;;;;11.97;87.93;102860.44;5068684;28;20132;-71
2022/10/19 09:34:18;;;;;;;9.50;3.38;;;;;;;12.11;88.31;102858.00;5067295;28;20067;-70
2022/10/19 09:36:51;;;;;;;15.27;3.97;;;;;;;12.15;87.80;102853.03;5048732;28;20475;-70
2022/10/19 09:39:17;;;;;;;13.90;3.33;;;;;;;12.27;87.55;102838.91;5067764;28;20107;-69
2022/10/19 09:41:50;;;;;;;9.27;3.70;;;;;;;12.29;87.39;102838.75;5050840;28;20550;-70
2022/10/19 09:44:16;;;;;;;7.10;3.20;;;;;;;12.19;86.78;102825.13;5052257;28;20462;-70
2022/10/19 09:46:51;;;;;;;13.77;3.43;;;;;;;12.32;86.20;102838.44;5068117;28;20108;-70
2022/10/19 09:49:18;;;;;;;15.70;3.35;;;;;;;12.39;85.90;102821.13;5068657;28;20062;-70
2022/10/19 09:51:50;;;;;;;10.70;2.80;;;;;;;12.55;85.67;102821.25;5065760;28;20029;-70
2022/10/19 09:54:25;;;;;;;9.02;2.97;;;;;;;12.79;85.40;102806.78;5069062;28;20024;-70
2022/10/19 09:56:55;;;;;;;8.98;2.78;;;;;;;12.82;83.21;102811.97;5054403;28;20032;-70
2022/10/19 09:59:22;;;;;;;12.40;2.80;;;;;;;12.85;82.96;102806.09;5066064;28;20028;-70
2022/10/19 10:01:59;;;;;;;10.00;2.55;;;;;;;12.79;81.97;102806.78;5064252;28;20029;-72
2022/10/19 10:04:25;;;;;;;7.25;2.30;;;;;;;12.83;83.49;102797.19;5048459;28;20031;-72
2022/10/19 10:06:50;;;;;;;15.40;2.10;;;;;;;12.96;81.84;102800.38;5067228;28;20021;-71
2022/10/19 10:09:17;;;;;;;8.73;2.60;;;;;;;13.00;80.76;102788.00;5048898;28;20433;-70
2022/10/19 10:11:46;;;;;;;8.57;2.40;;;;;;;13.08;80.59;102797.16;5061580;28;20081;-71
2022/10/19 10:14:20;;;;;;;11.07;2.80;;;;;;;13.12;80.29;102797.69;5067110;28;20045;-71
2022/10/19 10:16:46;;;;;;;10.32;2.60;;;;;;;13.21;80.83;102785.66;5069198;28;20058;-70
2022/10/19 10:19:15;;;;;;;10.10;2.13;;;;;;;13.39;79.13;102779.00;5067257;28;20040;-72
2022/10/19 10:21:54;;;;;;;8.10;2.22;;;;;;;13.57;78.48;102771.50;5069046;28;20040;-70
2022/10/19 10:24:24;;;;;;;12.98;2.78;;;;;;;13.73;77.40;102776.16;5068012;28;20102;-72
2022/10/19 10:26:58;;;;;;;8.43;2.40;;;;;;;13.82;77.50;102770.47;5062697;28;20053;-71
2022/10/19 10:29:31;;;;;;;12.63;1.80;;;;;;;13.83;77.24;102772.19;5063680;28;20036;-70
2022/10/19 10:32:02;;;;;;;9.13;2.53;;;;;;;13.88;76.14;102775.28;5068797;28;20029;-71
2022/10/19 10:34:34;;;;;;;7.90;1.83;;;;;;;13.86;75.62;102771.84;5066821;28;20033;-71
2022/10/19 10:37:02;;;;;;;7.88;1.92;;;;;;;13.70;76.53;102759.97;5051614;28;20047;-70
2022/10/19 10:39:28;;;;;;;8.85;2.20;;;;;;;13.67;75.28;102746.53;5068207;28;20033;-72
2022/10/19 10:41:58;;;;;;;12.02;1.98;;;;;;;13.78;74.84;102737.94;5053075;28;20033;-71
2022/10/19 10:44:32;;;;;;;8.82;2.20;;;;;;;13.80;74.76;102733.09;5044030;28;20402;-72
2022/10/19 10:46:59;;;;;;;8.30;2.17;;;;;;;13.66;75.80;102731.91;5044028;28;20094;-70
2022/10/19 10:49:35;;;;;;;11.32;3.22;;;;;;;13.80;76.03;102733.09;5064305;28;20051;-72
2022/10/19 10:52:07;;;;;;;6.97;2.63;;;;;;;14.07;75.42;102732.75;5069506;28;20882;-70
2022/10/19 10:54:32;;;;;;;6.00;2.20;;;;;;;14.20;75.30;102733.13;5058567;28;20716;-72
2022/10/19 10:57:11;;;;;;;8.93;2.43;;;;;;;14.16;74.52;102739.97;5065144;28;20029;-71
2022/10/19 10:59:55;;;;;;;9.35;2.35;;;;;;;14.21;74.49;102730.19;5058723;28;20068;-72
2022/10/19 11:02:39;;;;;;;7.35;2.45;;;;;;;14.29;74.12;102732.94;5062980;28;20032;-71
2022/10/19 11:05:13;;;;;;;8.20;2.83;;;;;;;14.30;74.31;102736.56;5061215;28;20104;-72
2022/10/19 11:07:43;;;;;;;6.88;2.45;;;;;;;14.66;74.14;102737.81;5056622;28;20465;-72
2022/10/19 11:10:38;;;;;;;4.85;2.30;;;;;;;14.48;73.49;102740.81;5052852;28;20025;-71
2022/10/19 11:13:14;;;;;;;10.07;2.38;;;;;;;14.80;73.12;102739.84;5074889;28;20044;-71
2022/10/19 11:15:39;;;;;;;10.13;2.80;;;;;;;14.80;72.29;102728.81;5065168;28;20071;-71
2022/10/19 11:18:17;;;;;;;10.37;2.33;;;;;;;14.70;71.26;102733.66;5067644;28;20024;-73
2022/10/19 11:20:52;;;;;;;6.35;1.90;;;;;;;14.70;70.92;102711.59;5048493;28;20084;-71
2022/10/19 11:23:31;;;;;;;9.13;2.17;;;;;;;14.87;71.32;102708.59;5048546;28;20100;-71
2022/10/19 11:26:15;;;;;;;12.25;2.67;;;;;;;14.86;71.19;102706.00;5063698;28;20081;-73
2022/10/19 11:29:00;;;;;;;9.10;2.75;;;;;;;14.83;70.70;102706.38;5063403;28;20033;-71
2022/10/19 11:31:49;;;;;;;7.72;3.22;;;;;;;14.88;70.44;102684.63;5043430;28;20045;-71